Bangkok Bridge — 3FTZ8 — position and weather

sailwx.info

Track history (hours):
 
Tides and Currents Weather Stations Pressure Air Temp Water Temp Dewpoint Dewpoint Depression Visibility Wind Speed Wind Dir Waves Ship Positions

Bangkok Bridge

Last reported at 2014-Jul-31 08:33 UTC. Time now 2014-Jul-31 09:34 UTC.
Position N 34°52' W 121°39'.

Length 267 m; draft 12.4 m.

Type: Ship (hazmat cat A). MMSI: 353368000.

Date/timePositionNaut miles runAvg speedWind from/ knotsBaromVisibWave heightAir tempDewpointWater temp
2014-Jul-31 08:33N 34°52' W 121°39'1919.2
2014-Jul-31 07:34N 35°03' W 121°58'1919.4
2014-Jul-31 06:33N 35°14' W 122°18'1919.4
2014-Jul-31 05:33N 35°26' W 122°37'2019.6
2014-Jul-31 04:33N 35°37' W 122°56'2019.8
2014-Jul-31 03:33N 35°49' W 123°16'2120.5
2014-Jul-31 02:33N 36°01' W 123°37'2120.8
2014-Jul-31 01:33N 36°13' W 123°57'2521.0
2014-Jul-31 00:23N 36°28' W 124°22'2420.3
2014-Jul-30 23:13N 36°42' W 124°45'1320.0
2014-Jul-30 22:33N 36°50' W 124°59'1919.4
2014-Jul-30 21:33N 37°01' W 125°18'1918.9
2014-Jul-30 20:33N 37°12' W 125°38'1919.5
2014-Jul-30 19:33N 37°24' W 125°57'2019.8
2014-Jul-30 18:33N 37°36' W 126°17'2019.8
2014-Jul-30 17:33N 37°47' W 126°38'2019.7
2014-Jul-30 16:33N 37°59' W 126°58'10619.7
2014-Jul-30 11:09N 39°02' W 128°47'1620.0
2014-Jul-30 10:22N 39°12' W 129°04'7819.7
2014-Jul-30 06:23N 39°56' W 130°28'  
Track history (hours):
 
Tides and Currents Weather Stations Pressure Air Temp Water Temp Dewpoint Dewpoint Depression Visibility Wind Speed Wind Dir Waves Ship Positions

Bangkok Bridge

Last reported at 2014-Jul-31 08:33 UTC. Time now 2014-Jul-31 09:34 UTC.
Position N 34°52' W 121°39'.

Length 267 m; draft 12.4 m.

Type: Ship (hazmat cat A). MMSI: 353368000.

Date/timePositionNaut miles runAvg speedWind from/ knotsBaromVisibWave heightAir tempDewpointWater temp
2014-Jul-31 08:33N 34°52' W 121°39'1919.2
2014-Jul-31 07:34N 35°03' W 121°58'1919.4
2014-Jul-31 06:33N 35°14' W 122°18'1919.4
2014-Jul-31 05:33N 35°26' W 122°37'2019.6
2014-Jul-31 04:33N 35°37' W 122°56'2019.8
2014-Jul-31 03:33N 35°49' W 123°16'2120.5
2014-Jul-31 02:33N 36°01' W 123°37'2120.8
2014-Jul-31 01:33N 36°13' W 123°57'2521.0
2014-Jul-31 00:23N 36°28' W 124°22'2420.3
2014-Jul-30 23:13N 36°42' W 124°45'1320.0
2014-Jul-30 22:33N 36°50' W 124°59'1919.4
2014-Jul-30 21:33N 37°01' W 125°18'1918.9
2014-Jul-30 20:33N 37°12' W 125°38'1919.5
2014-Jul-30 19:33N 37°24' W 125°57'2019.8
2014-Jul-30 18:33N 37°36' W 126°17'2019.8
2014-Jul-30 17:33N 37°47' W 126°38'2019.7
2014-Jul-30 16:33N 37°59' W 126°58'10619.7
2014-Jul-30 11:09N 39°02' W 128°47'1620.0
2014-Jul-30 10:22N 39°12' W 129°04'7819.7
2014-Jul-30 06:23N 39°56' W 130°28'  

Dump ship's entire track history